createdAt,value
2018-12-10T00:03:57.735Z,99214.72
2018-12-10T00:09:01.159Z,99217.22
2018-12-10T00:14:04.648Z,99230.94
2018-12-10T00:19:08.142Z,99238.13
2018-12-10T00:24:11.514Z,99245.26
2018-12-10T00:29:15.064Z,99255.84
2018-12-10T00:34:18.595Z,99252.59
2018-12-10T00:39:22.182Z,99264.02
2018-12-10T00:44:25.591Z,99267.97
2018-12-10T00:54:57.568Z,99292.92
2018-12-10T01:00:01.021Z,99298.22
2018-12-10T01:05:04.684Z,99297.92
2018-12-10T01:10:08.262Z,99314.83
2018-12-10T01:15:11.606Z,99316.33
2018-12-10T01:20:15.030Z,99321.81
2018-12-10T01:30:21.161Z,99343.92
2018-12-10T01:35:24.560Z,99347.83
2018-12-10T01:40:28.004Z,99363.71
2018-12-10T01:45:31.364Z,99365.34
2018-12-10T01:50:34.847Z,99368.69
2018-12-10T01:55:38.408Z,99384.05
2018-12-10T02:00:41.859Z,99388.94
2018-12-10T02:05:45.295Z,99395.11
2018-12-10T02:10:48.754Z,99396.42
2018-12-10T02:15:52.162Z,99390.03
2018-12-10T02:20:55.566Z,99392.95
2018-12-10T02:25:59.004Z,99392.73
2018-12-10T02:31:02.415Z,99391.16
2018-12-10T02:36:05.898Z,99403.52
2018-12-10T02:41:09.277Z,99410.42
2018-12-10T02:46:12.647Z,99422.44
2018-12-10T02:51:16.175Z,99421.33
2018-12-10T02:56:19.609Z,99433.92
2018-12-10T03:01:23.285Z,99440.80
2018-12-10T03:06:26.772Z,99452.54
2018-12-10T03:11:30.156Z,99447.78
2018-12-10T03:16:33.608Z,99448.28
2018-12-10T03:21:37.124Z,99458.61
2018-12-10T03:26:40.545Z,99464.11
2018-12-10T03:31:43.927Z,99477.00
2018-12-10T03:36:47.301Z,99491.70
2018-12-10T03:41:50.739Z,99501.75
2018-12-10T03:46:54.202Z,99498.51
2018-12-10T03:51:57.579Z,99487.69
2018-12-10T03:57:00.947Z,99503.99
2018-12-10T04:02:04.419Z,99504.84
2018-12-10T04:07:07.793Z,99513.98
2018-12-10T04:12:11.171Z,99523.31
2018-12-10T04:17:14.594Z,99521.98
2018-12-10T04:22:17.944Z,99546.38
2018-12-10T04:27:21.340Z,99554.35
2018-12-10T04:32:24.680Z,99564.05
2018-12-10T04:37:28.179Z,99573.00
2018-12-10T04:42:31.680Z,99576.31
2018-12-10T04:47:35.088Z,99568.14
2018-12-10T04:52:38.647Z,99564.32
2018-12-10T04:57:42.137Z,99572.85
2018-12-10T05:02:45.602Z,99577.40
2018-12-10T05:07:48.984Z,99584.63
2018-12-10T05:12:52.386Z,99595.27
2018-12-10T05:17:55.864Z,99603.23
2018-12-10T05:22:59.263Z,99620.16
2018-12-10T05:28:02.636Z,99618.69
2018-12-10T05:33:06.080Z,99617.70
2018-12-10T05:38:09.506Z,99622.72
2018-12-10T05:43:12.970Z,99632.41
2018-12-10T05:48:16.489Z,99638.25
2018-12-10T05:53:19.886Z,99636.80
2018-12-10T05:58:23.477Z,99644.98
2018-12-10T06:03:26.938Z,99652.95
2018-12-10T06:08:30.386Z,99651.12
2018-12-10T06:13:33.806Z,99651.84
2018-12-10T06:18:41.181Z,99664.09
2018-12-10T06:23:44.707Z,99680.25
2018-12-10T06:28:48.175Z,99676.08
2018-12-10T06:33:51.635Z,99681.95
2018-12-10T06:38:55.053Z,99693.83
2018-12-10T06:43:58.475Z,99703.00
2018-12-10T06:49:02.035Z,99710.10
2018-12-10T06:54:05.687Z,99724.43
2018-12-10T06:59:09.193Z,99735.70
2018-12-10T07:04:12.684Z,99736.55
2018-12-10T07:09:16.261Z,99742.05
2018-12-10T07:14:19.818Z,99742.17
2018-12-10T07:19:23.312Z,99746.83
2018-12-10T07:24:26.930Z,99764.07
2018-12-10T07:29:30.474Z,99762.57
2018-12-10T07:34:33.914Z,99761.14
2018-12-10T07:39:37.507Z,99773.02
2018-12-10T07:44:41.164Z,99775.49
2018-12-10T07:49:44.737Z,99784.30
2018-12-10T07:54:48.267Z,99785.16
2018-12-10T07:59:51.715Z,99796.41
2018-12-10T08:04:55.211Z,99798.45
2018-12-10T08:09:58.726Z,99810.31
2018-12-10T08:15:02.175Z,99829.55
2018-12-10T08:20:06.204Z,99853.26
2018-12-10T08:25:09.653Z,99867.84
2018-12-10T08:30:13.196Z,99880.88
2018-12-10T08:35:16.738Z,99844.28
2018-12-10T08:40:20.485Z,99851.63
2018-12-10T08:45:24.145Z,99848.91
2018-12-10T08:50:27.779Z,99854.91
2018-12-10T08:55:31.691Z,99867.46
2018-12-10T09:00:35.348Z,99860.88
2018-12-10T09:05:39.040Z,99878.75
2018-12-10T09:10:42.620Z,99864.09
2018-12-10T09:15:46.360Z,99873.37
2018-12-10T09:20:49.897Z,99894.59
2018-12-10T09:25:53.563Z,99887.91
2018-12-10T09:30:57.452Z,99889.25
2018-12-10T09:36:03.524Z,99897.20
2018-12-10T09:41:07.219Z,99896.86
2018-12-10T09:46:11.122Z,99896.98
2018-12-10T09:51:15.005Z,99900.05
2018-12-10T09:56:18.702Z,99902.83
2018-12-10T10:01:26.080Z,99893.96
2018-12-10T10:06:29.741Z,99897.75
2018-12-10T10:11:33.283Z,99896.96
2018-12-10T10:16:36.723Z,99896.03
2018-12-10T10:21:40.131Z,99896.78
2018-12-10T10:26:43.462Z,99890.02
2018-12-10T10:31:46.864Z,99888.81
2018-12-10T10:36:50.403Z,99896.77
2018-12-10T10:41:53.738Z,99904.95
2018-12-10T10:46:57.170Z,99906.74
2018-12-10T10:52:00.608Z,99900.95
2018-12-10T10:57:04.086Z,99896.99
2018-12-10T11:02:13.019Z,99891.38
2018-12-10T11:07:18.026Z,99901.34
2018-12-10T11:12:21.459Z,99891.86
2018-12-10T11:17:24.960Z,99892.63
2018-12-10T11:22:28.384Z,99889.70
2018-12-10T11:27:31.878Z,99885.14
2018-12-10T11:32:35.235Z,99882.37
2018-12-10T11:37:38.563Z,99876.02
2018-12-10T11:42:41.897Z,99874.26
2018-12-10T11:47:45.974Z,99870.59
2018-12-10T11:52:49.594Z,99874.88
2018-12-10T11:57:52.978Z,99863.56
2018-12-10T12:02:56.288Z,99860.27
2018-12-10T12:07:59.762Z,99857.41
2018-12-10T12:13:03.090Z,99852.75
2018-12-10T12:18:06.633Z,99856.17
2018-12-10T12:23:10.091Z,99856.72
2018-12-10T12:28:13.499Z,99850.81
2018-12-10T12:33:16.879Z,99849.59
2018-12-10T12:38:20.413Z,99847.70
2018-12-10T12:43:23.778Z,99850.59
2018-12-10T12:48:27.207Z,99845.83
2018-12-10T12:53:31.673Z,99846.02
2018-12-10T12:58:35.258Z,99844.48
2018-12-10T13:03:38.627Z,99842.11
2018-12-10T13:08:42.104Z,99845.11
2018-12-10T13:13:45.514Z,99851.58
2018-12-10T13:18:48.921Z,99850.23
2018-12-10T13:23:52.280Z,99850.06
2018-12-10T13:28:55.671Z,99844.32
2018-12-10T13:33:59.313Z,99862.46
2018-12-10T13:39:02.840Z,99890.28
2018-12-10T13:44:06.219Z,99881.84
2018-12-10T13:49:09.744Z,99896.39
2018-12-10T13:54:13.211Z,99912.21
2018-12-10T13:59:16.829Z,99888.64
2018-12-10T14:04:25.361Z,99891.16
2018-12-10T14:09:28.766Z,99902.77
2018-12-10T14:14:32.226Z,99895.09
2018-12-10T14:19:43.102Z,99902.45
2018-12-10T14:24:46.610Z,99902.24
2018-12-10T14:29:50.269Z,99905.20
2018-12-10T14:34:53.814Z,99897.76
2018-12-10T14:39:57.236Z,99891.17
2018-12-10T14:45:00.671Z,99893.97
2018-12-10T14:50:04.520Z,99890.20
2018-12-10T14:55:08.082Z,99890.83
2018-12-10T15:00:12.171Z,99891.75
2018-12-10T15:05:15.644Z,99898.78
2018-12-10T15:10:23.247Z,99896.03
2018-12-10T15:15:24.683Z,99914.20
2018-12-10T15:20:28.186Z,99906.45
2018-12-10T15:25:31.644Z,99917.37
2018-12-10T15:30:35.257Z,99927.75
2018-12-10T15:35:38.842Z,99923.47
2018-12-10T15:40:42.301Z,99923.06
2018-12-10T15:51:13.811Z,99925.48
2018-12-10T15:56:17.310Z,99933.05
2018-12-10T16:01:20.754Z,99920.23
2018-12-10T16:56:55.896Z,99914.79
2018-12-10T17:41:23.858Z,99909.91
2018-12-10T17:46:27.370Z,99905.66
2018-12-10T17:51:30.824Z,99896.83
2018-12-10T18:55:19.186Z,99890.47
2018-12-10T19:00:22.649Z,99897.03
2018-12-10T19:05:28.609Z,99886.48
2018-12-10T19:10:44.973Z,99879.88
2018-12-10T19:15:48.549Z,99877.31
2018-12-10T19:20:51.923Z,99888.98
2018-12-10T19:25:55.335Z,99892.26
2018-12-10T19:30:58.748Z,99881.27
2018-12-10T19:36:02.150Z,99885.36
2018-12-10T19:41:05.662Z,99873.03
2018-12-10T19:46:09.224Z,99876.57
2018-12-10T19:56:41.163Z,99890.47
2018-12-10T20:35:32.650Z,99890.36
2018-12-10T20:40:36.077Z,99890.42
2018-12-10T20:45:40.029Z,99881.69
2018-12-10T20:50:43.506Z,99877.41
2018-12-10T20:55:46.925Z,99880.41
2018-12-10T21:00:50.430Z,99882.95
2018-12-10T21:05:59.294Z,99887.77
2018-12-10T21:11:02.805Z,99889.98
2018-12-10T21:16:07.073Z,99880.63
2018-12-10T21:21:10.886Z,99875.91
2018-12-10T21:26:14.458Z,99856.41
2018-12-10T21:31:18.098Z,99849.33
2018-12-10T21:36:21.725Z,99860.37
2018-12-10T21:41:25.235Z,99857.93
2018-12-10T21:46:28.705Z,99844.16
2018-12-10T21:51:32.197Z,99854.34
2018-12-10T21:56:35.561Z,99840.78
2018-12-10T22:01:39.054Z,99856.70
2018-12-10T22:06:42.613Z,99837.41
2018-12-10T22:11:46.012Z,99833.28
2018-12-10T22:16:49.465Z,99818.37
2018-12-10T22:21:52.941Z,99820.73
2018-12-10T22:27:02.781Z,99820.62
2018-12-10T22:32:06.135Z,99818.78
2018-12-10T22:37:09.491Z,99821.75
2018-12-10T22:42:13.013Z,99822.48
2018-12-10T22:47:16.359Z,99818.83
2018-12-10T22:52:19.817Z,99826.77
2018-12-10T22:57:23.238Z,99832.91
2018-12-10T23:02:26.780Z,99833.03
2018-12-10T23:07:30.193Z,99832.67
2018-12-10T23:12:33.575Z,99834.42
2018-12-10T23:17:37.038Z,99832.67
2018-12-10T23:22:40.425Z,99828.55
2018-12-10T23:27:43.949Z,99821.09
2018-12-10T23:32:47.410Z,99828.58
2018-12-10T23:37:50.788Z,99831.89
2018-12-10T23:42:59.633Z,99837.88
2018-12-10T23:48:03.549Z,99829.69
2018-12-10T23:53:06.941Z,99832.38
2018-12-10T23:58:10.407Z,99844.97
